Bei Facebook empfehlenBei Twitter postenGoogle plusPinterest

Das Wetter im Erzgebirge am 08.09.2017

Wetter und Klima am 08.09.2017 Holzhau im Erzgebirge (630m ü.NN)
Letzte gemessene Temperatur und Uhrzeit der Messung23:45:00 Uhr10.80 °C
Temperatur (Maximum / Höchstwert) und Uhrzeit der Messung15:30:00 Uhr17.40 °C
Temperatur (Minimum / Tiefstwert) und Uhrzeit der Messung04:30:004.70 °C
Errechneter Absolutwert der Temperaturschwankungen zwischen Tmin und Tmax des Tages12.70 K
Errechnete Tagesmitteltemperatur10.96458 °C
Gesamt - Niederschlag des Tages (in flüssiger Form)0.52 Liter / m²
Luftdruck (Maximum / Höchstwert) und Zeitpunkt der Messung00:15:00 Uhr1011.60 hPa
Luftdruck (Minimum / Tiefstwert) und Zeitpunkt der Messung23:30:00 Uhr1003.60 hPa
Errechneter Absolutwert der Luftdruckschwankungen des Tages8.00 hPa
Höchste gemessene Windgeschwindigkeit und Uhrzeit der Messung15:30:00 Uhr54.36 km/h
Errechnete Windhäufigkeit in Relation zu den Messwerten des Tages15.62500 %
Niedrigste Windkühle (Windchill) und Zeitpunkt der Messung04:30:00 Uhr4.70 °C
Taupunkt (Maximum / Höchstwert) und Uhrzeit der Messung10:45:00 Uhr11.40 °C
Taupunkt (Minimum / Tiefstwert) und Uhrzeit der Messung04:30:003.80 °C
Anzahl der automatisch eingelesenen Messwerte 96

Detaillierte Wetter- und Klima- Messwerte für den 08.09.2017 in Holzhau im Erzgebirge (630m ü.NN)
ZeitTemperaturLuftdruckRel. LuftfeuchteWindWindrichtungWindchillTaupunktNiederschlag l/m²
23:45:0010.80 °C1003.70 hPa83.00 %8.00 °C0.52
23:30:0010.70 °C1003.60 hPa85.00 %15.48 km/hSW10.70 °C8.30 °C0.52
23:15:0010.00 °C1003.60 hPa87.00 %7.90 °C0.52
23:00:009.10 °C1004.00 hPa87.00 %7.10 °C0.52
22:45:009.20 °C1004.20 hPa87.00 %7.20 °C0.52
22:30:009.30 °C1004.20 hPa86.00 %7.10 °C0.52
22:15:009.50 °C1004.20 hPa85.00 %7.10 °C0.52
22:00:009.80 °C1004.30 hPa85.00 %7.40 °C0.52
21:45:009.80 °C1004.30 hPa85.00 %7.40 °C0.52
21:30:009.90 °C1004.60 hPa84.00 %7.30 °C0.52
21:15:0010.10 °C1004.40 hPa84.00 %7.50 °C0.52
21:00:0010.10 °C1004.50 hPa83.00 %7.30 °C0.52
20:45:0010.20 °C1004.50 hPa83.00 %7.40 °C0.52
20:30:0010.30 °C1004.90 hPa82.00 %7.40 °C0.52
20:15:0010.60 °C1005.00 hPa81.00 %7.50 °C0.52
20:00:0010.90 °C1005.00 hPa79.00 %7.40 °C0.52
19:45:0011.30 °C1004.90 hPa77.00 %7.40 °C0.52
19:30:0011.90 °C1005.00 hPa75.00 %7.60 °C0.52
19:15:0012.60 °C1005.00 hPa72.00 %7.70 °C0.52
19:00:0013.20 °C1004.90 hPa71.00 %8.10 °C0.52
18:45:0013.90 °C1005.20 hPa70.00 %8.50 °C0.52
18:30:0014.20 °C1005.20 hPa69.00 %8.60 °C0.52
18:15:0014.50 °C1005.20 hPa68.00 %11.52 km/hWSW14.50 °C8.70 °C0.52
18:00:0014.90 °C1005.40 hPa67.00 %8.80 °C0.52
17:45:0015.20 °C1005.40 hPa67.00 %9.10 °C0.52
17:30:0015.30 °C1005.70 hPa66.00 %9.00 °C0.52
17:15:0015.50 °C1005.80 hPa66.00 %9.20 °C0.52
17:00:0015.90 °C1005.90 hPa66.00 %9.60 °C0.52
16:45:0015.60 °C1006.00 hPa67.00 %49.32 km/hSW14.90 °C9.50 °C0.52
16:30:0015.40 °C1006.00 hPa68.00 %9.50 °C0.52
16:15:0016.00 °C1006.20 hPa64.00 %19.44 km/hSW16.50 °C9.20 °C0.52
16:00:0016.90 °C1006.30 hPa65.00 %10.30 °C0.52
15:45:0016.90 °C1006.30 hPa63.00 %9.80 °C0.52
15:30:0017.40 °C1006.30 hPa63.00 %54.36 km/hSW17.00 °C10.30 °C0.52
15:15:0017.10 °C1006.40 hPa63.00 %10.00 °C0.52
15:00:0016.50 °C1006.60 hPa63.00 %9.40 °C0.52
14:45:0016.60 °C1006.90 hPa63.00 %9.50 °C0.52
14:30:0016.90 °C1006.90 hPa63.00 %9.80 °C0.52
14:15:0017.20 °C1007.10 hPa63.00 %3.96 km/hSW17.20 °C10.10 °C0.52
14:00:0017.40 °C1006.90 hPa64.00 %20.88 km/hSW18.00 °C10.50 °C0.52
13:45:0016.90 °C1007.00 hPa66.00 %5.04 km/hW16.90 °C10.50 °C0.52
13:30:0017.00 °C1007.00 hPa63.00 %6.48 km/hSW17.00 °C9.90 °C0.52
13:15:0016.90 °C1006.90 hPa65.00 %2.52 km/hNNO16.90 °C10.30 °C0.52
13:00:0016.50 °C1007.00 hPa66.00 %30.96 km/hSSW16.60 °C10.10 °C0.52
12:45:0016.20 °C1007.00 hPa67.00 %42.84 km/hSW15.80 °C10.10 °C0.52
12:30:0015.90 °C1007.10 hPa69.00 %37.44 km/hS15.60 °C10.20 °C0.52
12:15:0016.30 °C1007.20 hPa68.00 %10.40 °C0.52
12:00:0016.40 °C1007.30 hPa70.00 %10.90 °C0.52
11:45:0016.30 °C1007.50 hPa71.00 %11.00 °C0.52
11:30:0015.90 °C1007.50 hPa73.00 %11.10 °C0.52
11:15:0015.20 °C1007.70 hPa75.00 %10.80 °C0.52
11:00:0015.60 °C1007.90 hPa75.00 %19.44 km/hSSO16.00 °C11.20 °C0.52
10:45:0015.20 °C1007.80 hPa78.00 %11.40 °C0.52
10:30:0014.30 °C1007.90 hPa82.00 %11.52 km/hSW14.30 °C11.30 °C0.52
10:15:0013.40 °C1008.00 hPa85.00 %10.90 °C0.52
10:00:0012.90 °C1008.40 hPa86.00 %10.60 °C0.52
09:45:0012.30 °C1008.50 hPa88.00 %10.40 °C0.52
09:30:0012.00 °C1008.60 hPa89.00 %10.20 °C0.52
09:15:0011.70 °C1008.40 hPa91.00 %10.30 °C0.52
09:00:0011.30 °C1008.40 hPa94.00 %10.40 °C0.52
08:45:0010.80 °C1008.50 hPa95.00 %10.00 °C0.52
08:30:0010.40 °C1008.70 hPa95.00 %9.60 °C0.52
08:15:009.90 °C1008.70 hPa95.00 %9.10 °C0.52
08:00:009.30 °C1008.70 hPa96.00 %8.70 °C0.52
07:45:008.80 °C1008.80 hPa95.00 %8.00 °C0.52
07:30:008.80 °C1008.70 hPa95.00 %8.00 °C0.52
07:15:007.80 °C1008.90 hPa95.00 %7.10 °C0.52
07:00:007.30 °C1008.80 hPa95.00 %6.60 °C0.52
06:45:006.90 °C1008.80 hPa95.00 %6.20 °C0.52
06:30:006.40 °C1009.10 hPa95.00 %5.70 °C0.52
06:15:006.30 °C1009.30 hPa95.00 %5.60 °C0.52
06:00:006.10 °C1009.30 hPa95.00 %5.40 °C0.52
05:45:005.90 °C1009.60 hPa95.00 %5.20 °C0.52
05:30:005.60 °C1009.60 hPa95.00 %4.90 °C0.52
05:15:005.40 °C1009.70 hPa95.00 %4.70 °C0.52
05:00:005.30 °C1009.80 hPa95.00 %4.60 °C0.52
04:45:004.90 °C1009.80 hPa94.00 %4.00 °C0.52
04:30:004.70 °C1009.80 hPa94.00 %3.80 °C0.52
04:15:004.70 °C1009.80 hPa94.00 %3.80 °C0.52
04:00:004.80 °C1010.10 hPa94.00 %3.90 °C0.52
03:45:004.80 °C1010.20 hPa94.00 %3.90 °C0.52
03:30:004.80 °C1010.30 hPa94.00 %3.90 °C0.52
03:15:004.90 °C1010.50 hPa94.00 %4.00 °C0.52
03:00:005.10 °C1010.40 hPa94.00 %4.20 °C0.52
02:45:005.10 °C1010.40 hPa94.00 %4.20 °C0.52
02:30:004.90 °C1010.40 hPa93.00 %3.90 °C0.52
02:15:005.20 °C1010.50 hPa93.00 %4.20 °C0.52
02:00:005.30 °C1010.50 hPa93.00 %4.30 °C0.52
01:45:005.30 °C1010.60 hPa93.00 %4.30 °C0.52
01:30:005.30 °C1010.80 hPa93.00 %4.30 °C0.52
01:15:005.50 °C1010.80 hPa93.00 %4.50 °C0.52
01:00:005.80 °C1011.30 hPa93.00 %4.80 °C0.52
00:45:005.90 °C1011.30 hPa93.00 %4.90 °C0.52
00:30:005.80 °C1011.50 hPa93.00 %4.80 °C 
00:15:005.90 °C1011.60 hPa93.00 %4.90 °C 
00:00:006.10 °C1011.60 hPa93.00 %5.10 °C 

Permanenter Link zu dieser Seite: Wetter im Erzgebirge am 08.09.2017
Performance-Info: Die Erstellung der Seite / Statistik(en) / Tabelle(n) erforderte 5 Datenbankserver-Abfrage(n) und dauerte 104 Millisekunden. (Dieser Messwert ist von der Gesamt-Auslastung des Servers abhängig.)
Erzgebirge - Wetter | Erzgebirge - Wetter (Mobilgeräte) | Komplette Klimadatenbank